createdAt,value
2018-11-05T00:00:18.549Z,97.70
2018-11-05T00:02:49.102Z,98.00
2018-11-05T00:05:18.092Z,98.10
2018-11-05T00:07:47.019Z,98.40
2018-11-05T00:10:16.093Z,97.80
2018-11-05T00:12:45.004Z,97.90
2018-11-05T00:15:13.923Z,98.10
2018-11-05T00:17:42.851Z,97.90
2018-11-05T00:20:12.114Z,97.70
2018-11-05T00:22:41.031Z,97.50
2018-11-05T00:25:11.736Z,97.70
2018-11-05T00:27:41.090Z,98.20
2018-11-05T00:30:11.818Z,98.10
2018-11-05T00:32:41.197Z,97.90
2018-11-05T00:35:10.352Z,97.80
2018-11-05T00:37:39.334Z,97.90
2018-11-05T00:40:11.834Z,98.10
2018-11-05T00:42:41.282Z,97.90
2018-11-05T00:45:11.190Z,97.80
2018-11-05T00:47:40.547Z,97.70
2018-11-05T00:50:11.405Z,98.00
2018-11-05T00:52:40.511Z,98.20
2018-11-05T00:55:10.513Z,98.60
2018-11-05T00:57:39.482Z,97.90
2018-11-05T01:00:13.269Z,98.00
2018-11-05T01:02:42.539Z,98.40
2018-11-05T01:05:13.098Z,98.50
2018-11-05T01:07:42.817Z,98.20
2018-11-05T01:10:13.035Z,98.20
2018-11-05T01:12:42.183Z,98.00
2018-11-05T01:15:13.346Z,98.20
2018-11-05T01:17:42.407Z,98.00
2018-11-05T01:20:12.544Z,98.10
2018-11-05T01:22:41.667Z,98.30
2018-11-05T01:25:10.837Z,98.20
2018-11-05T01:27:39.749Z,97.80
2018-11-05T01:30:10.527Z,98.10
2018-11-05T01:32:39.762Z,98.10
2018-11-05T01:35:10.570Z,98.00
2018-11-05T01:37:40.382Z,97.90
2018-11-05T01:40:12.655Z,97.90
2018-11-05T01:42:41.701Z,98.20
2018-11-05T01:45:11.954Z,98.60
2018-11-05T01:47:41.685Z,98.60
2018-11-05T01:50:12.706Z,98.20
2018-11-05T01:52:42.228Z,97.90
2018-11-05T01:55:11.439Z,98.30
2018-11-05T01:57:40.959Z,98.60
2018-11-05T02:00:12.730Z,98.50
2018-11-05T02:02:41.748Z,98.50
2018-11-05T02:05:11.180Z,98.60
2018-11-05T02:07:41.202Z,98.60
2018-11-05T02:10:12.665Z,98.60
2018-11-05T02:12:41.689Z,98.90
2018-11-05T02:15:10.977Z,98.50
2018-11-05T02:17:41.139Z,98.50
2018-11-05T02:20:10.128Z,98.50
2018-11-05T02:22:39.246Z,98.70
2018-11-05T02:25:09.327Z,99.20
2018-11-05T02:27:38.415Z,98.80
2018-11-05T02:30:12.003Z,98.70
2018-11-05T02:32:40.991Z,98.90
2018-11-05T02:35:11.606Z,99.00
2018-11-05T02:37:41.242Z,98.80
2018-11-05T02:40:12.688Z,99.00
2018-11-05T02:42:42.530Z,99.20
2018-11-05T02:45:12.706Z,98.80
2018-11-05T02:47:41.654Z,99.00
2018-11-05T02:50:11.730Z,99.10
2018-11-05T02:52:41.638Z,98.80
2018-11-05T02:55:10.638Z,98.40
2018-11-05T02:57:39.771Z,98.50
2018-11-05T03:00:12.405Z,99.00
2018-11-05T03:02:41.655Z,99.30
2018-11-05T03:05:14.862Z,99.40
2018-11-05T03:07:44.469Z,99.60
2018-11-05T03:10:13.769Z,99.60
2018-11-05T03:12:43.413Z,99.60
2018-11-05T03:15:13.658Z,99.90
2018-11-05T03:17:43.008Z,99.90
2018-11-05T03:20:13.274Z,99.90
2018-11-05T03:22:42.735Z,99.80
2018-11-05T03:25:11.852Z,99.80
2018-11-05T03:27:41.366Z,99.70
2018-11-05T03:30:12.387Z,99.90
2018-11-05T03:32:41.427Z,99.90
2018-11-05T03:35:11.516Z,99.90
2018-11-05T03:37:41.459Z,99.90
2018-11-05T03:40:11.366Z,99.90
2018-11-05T03:42:41.105Z,99.90
2018-11-05T03:45:11.753Z,99.90
2018-11-05T03:47:40.751Z,99.90
2018-11-05T03:50:13.555Z,99.90
2018-11-05T03:52:43.106Z,99.90
2018-11-05T03:55:12.682Z,99.90
2018-11-05T03:57:41.705Z,99.90
2018-11-05T04:00:12.497Z,99.90
2018-11-05T04:02:41.575Z,99.90
2018-11-05T04:05:10.568Z,99.90
2018-11-05T04:07:40.039Z,99.90
2018-11-05T04:10:10.094Z,99.90
2018-11-05T04:12:39.126Z,99.90
2018-11-05T04:15:08.555Z,99.90
2018-11-05T04:17:37.541Z,99.90
2018-11-05T04:20:08.566Z,99.90
2018-11-05T04:22:37.617Z,99.90
2018-11-05T04:25:06.660Z,99.90
2018-11-05T04:27:35.583Z,99.90
2018-11-05T04:30:06.181Z,99.90
2018-11-05T04:32:35.098Z,99.90
2018-11-05T04:35:04.007Z,99.90
2018-11-05T04:37:32.894Z,99.90
2018-11-05T04:40:01.791Z,99.90
2018-11-05T04:42:30.808Z,99.90
2018-11-05T04:44:59.688Z,99.90
2018-11-05T04:47:28.739Z,99.90
2018-11-05T04:49:58.194Z,99.90
2018-11-05T04:52:27.113Z,99.90
2018-11-05T04:54:56.035Z,99.90
2018-11-05T04:57:25.104Z,99.90
2018-11-05T04:59:54.025Z,99.90
2018-11-05T05:02:23.067Z,99.90
2018-11-05T05:04:52.110Z,99.90
2018-11-05T05:07:21.036Z,99.90
2018-11-05T05:09:49.998Z,99.90
2018-11-05T05:12:18.966Z,99.90
2018-11-05T05:14:47.862Z,99.90
2018-11-05T05:17:16.762Z,99.90
2018-11-05T05:19:45.679Z,99.90
2018-11-05T05:22:14.578Z,99.90
2018-11-05T05:24:43.473Z,99.90
2018-11-05T05:27:12.486Z,99.90
2018-11-05T05:29:41.370Z,99.90
2018-11-05T05:32:10.282Z,99.90
2018-11-05T05:34:39.199Z,99.90
2018-11-05T05:37:08.145Z,99.90
2018-11-05T05:39:37.106Z,99.90
2018-11-05T05:42:06.412Z,99.90
2018-11-05T05:44:35.310Z,99.90
2018-11-05T05:47:04.318Z,99.90
2018-11-05T05:49:33.218Z,99.90
2018-11-05T05:52:02.140Z,99.90
2018-11-05T05:54:31.366Z,99.90
2018-11-05T05:57:00.283Z,99.90
2018-11-05T05:59:29.215Z,99.90
2018-11-05T06:01:58.175Z,99.90
2018-11-05T06:04:27.130Z,99.90
2018-11-05T06:06:56.624Z,99.90
2018-11-05T06:09:26.247Z,99.90
2018-11-05T06:11:55.605Z,99.90
2018-11-05T06:14:24.550Z,99.90
2018-11-05T06:16:53.507Z,99.90
2018-11-05T06:19:22.653Z,99.90
2018-11-05T06:21:51.638Z,99.90
2018-11-05T06:24:20.535Z,99.90
2018-11-05T06:26:49.472Z,99.90
2018-11-05T06:29:18.398Z,99.90
2018-11-05T06:31:50.408Z,99.90
2018-11-05T06:34:19.979Z,99.90
2018-11-05T06:36:48.899Z,99.90
2018-11-05T06:39:17.876Z,99.90
2018-11-05T06:41:46.825Z,99.90
2018-11-05T06:44:15.723Z,99.90
2018-11-05T06:46:44.606Z,99.90
2018-11-05T06:49:13.502Z,99.90
2018-11-05T06:51:42.500Z,99.90
2018-11-05T06:54:11.387Z,99.90
2018-11-05T06:56:40.408Z,99.90
2018-11-05T06:59:09.379Z,99.90
2018-11-05T07:01:39.170Z,99.90
2018-11-05T07:04:08.301Z,99.90
2018-11-05T07:06:37.290Z,99.90
2018-11-05T07:09:09.294Z,99.90
2018-11-05T07:11:38.535Z,99.90
2018-11-05T07:14:07.873Z,99.90
2018-11-05T07:16:37.275Z,99.90
2018-11-05T07:19:07.187Z,99.90
2018-11-05T07:21:35.976Z,99.90
2018-11-05T07:24:04.898Z,99.90
2018-11-05T07:26:33.934Z,99.90
2018-11-05T07:29:02.826Z,99.90
2018-11-05T07:31:31.769Z,99.90
2018-11-05T07:34:00.866Z,99.90
2018-11-05T07:36:29.827Z,99.90
2018-11-05T07:38:58.789Z,99.90
2018-11-05T07:41:27.682Z,99.90
2018-11-05T07:43:56.581Z,99.90
2018-11-05T07:46:27.610Z,99.90
2018-11-05T07:48:56.546Z,99.90
2018-11-05T07:51:25.529Z,99.90
2018-11-05T07:53:54.412Z,99.90
2018-11-05T07:56:23.439Z,99.90
2018-11-05T07:58:52.325Z,99.90
2018-11-05T08:01:21.258Z,99.90
2018-11-05T08:03:50.442Z,99.90
2018-11-05T08:06:19.397Z,99.60
2018-11-05T08:08:48.418Z,99.20
2018-11-05T08:11:17.491Z,98.60
2018-11-05T08:13:47.479Z,98.40
2018-11-05T08:16:16.409Z,97.30
2018-11-05T08:18:45.370Z,96.20
2018-11-05T08:21:14.507Z,96.10
2018-11-05T08:23:43.435Z,95.40
2018-11-05T08:26:12.393Z,95.10
2018-11-05T08:28:41.298Z,94.60
2018-11-05T08:31:10.292Z,93.50
2018-11-05T08:33:39.201Z,93.10
2018-11-05T08:36:08.192Z,91.30
2018-11-05T08:38:37.103Z,91.10
2018-11-05T08:41:06.354Z,90.80
2018-11-05T08:43:35.271Z,90.40
2018-11-05T08:46:04.361Z,90.50
2018-11-05T08:48:33.441Z,90.10
2018-11-05T08:51:02.619Z,87.50
2018-11-05T08:53:31.624Z,84.50
2018-11-05T08:56:00.527Z,84.50
2018-11-05T08:58:29.532Z,87.70
2018-11-05T09:01:04.012Z,87.10
2018-11-05T09:03:32.893Z,85.00
2018-11-05T09:06:01.881Z,84.80
2018-11-05T09:08:30.802Z,82.50
2018-11-05T09:11:00.115Z,79.00
2018-11-05T09:13:28.726Z,76.50
2018-11-05T09:15:57.672Z,75.80
2018-11-05T09:18:26.567Z,75.90
2018-11-05T09:20:55.642Z,77.20
2018-11-05T09:23:24.498Z,74.50
2018-11-05T09:25:53.531Z,71.20
2018-11-05T09:28:22.586Z,74.20
2018-11-05T09:30:51.665Z,68.70
2018-11-05T09:33:20.713Z,65.30
2018-11-05T09:35:49.625Z,63.60
2018-11-05T09:38:18.537Z,62.20
2018-11-05T09:40:47.511Z,64.20
2018-11-05T09:43:16.424Z,64.20
2018-11-05T09:45:45.336Z,62.00
2018-11-05T09:48:14.259Z,61.20
2018-11-05T09:50:43.269Z,62.90
2018-11-05T09:53:13.173Z,60.50
2018-11-05T09:55:42.074Z,61.10
2018-11-05T09:58:11.003Z,61.60
2018-11-05T10:00:40.798Z,60.90
2018-11-05T10:03:14.636Z,61.60
2018-11-05T10:05:43.270Z,62.40
2018-11-05T10:08:12.361Z,63.10
2018-11-05T10:10:42.489Z,61.80
2018-11-05T10:13:11.430Z,60.20
2018-11-05T10:15:40.445Z,60.70
2018-11-05T10:18:09.576Z,63.20
2018-11-05T10:20:38.534Z,61.60
2018-11-05T10:23:07.434Z,60.40
2018-11-05T10:25:36.354Z,60.20
2018-11-05T10:28:06.829Z,60.50
2018-11-05T10:30:35.762Z,62.30
2018-11-05T10:33:04.996Z,61.40
2018-11-05T10:35:39.202Z,61.60
2018-11-05T10:38:08.177Z,62.30
2018-11-05T10:40:37.350Z,60.30
2018-11-05T10:43:06.649Z,62.20
2018-11-05T10:45:35.631Z,61.60
2018-11-05T10:48:04.570Z,61.00
2018-11-05T10:50:33.597Z,60.00
2018-11-05T10:53:04.220Z,60.80
2018-11-05T10:55:33.162Z,61.30
2018-11-05T10:58:02.207Z,65.60
2018-11-05T11:00:36.527Z,59.10
2018-11-05T11:03:11.000Z,57.50
2018-11-05T11:05:39.985Z,58.00
2018-11-05T11:08:08.987Z,57.00
2018-11-05T11:10:37.883Z,57.90
2018-11-05T11:13:06.826Z,59.70
2018-11-05T11:15:35.747Z,58.10
2018-11-05T11:18:04.912Z,54.70
2018-11-05T11:20:33.890Z,55.50
2018-11-05T11:23:02.845Z,54.10
2018-11-05T11:25:31.915Z,53.60
2018-11-05T11:28:01.033Z,50.70
2018-11-05T11:30:29.787Z,52.50
2018-11-05T11:32:58.727Z,49.90
2018-11-05T11:35:27.641Z,50.00
2018-11-05T11:37:56.583Z,50.00
2018-11-05T11:40:25.539Z,52.00
2018-11-05T11:42:54.540Z,51.00
2018-11-05T11:45:23.939Z,50.20
2018-11-05T11:47:52.906Z,48.50
2018-11-05T11:50:22.059Z,48.80
2018-11-05T11:52:51.365Z,48.40
2018-11-05T11:55:21.302Z,48.50
2018-11-05T11:57:50.268Z,45.70
2018-11-05T12:00:22.606Z,44.60
2018-11-05T12:02:52.067Z,45.50
2018-11-05T12:05:22.398Z,47.50
2018-11-05T12:07:51.197Z,45.10
2018-11-05T12:10:22.517Z,44.60
2018-11-05T12:12:51.849Z,44.90
2018-11-05T12:15:21.886Z,44.60
2018-11-05T12:17:52.006Z,43.40
2018-11-05T12:20:22.380Z,42.70
2018-11-05T12:22:53.014Z,43.90
2018-11-05T12:25:22.119Z,41.80
2018-11-05T12:27:51.098Z,39.40
2018-11-05T12:30:21.566Z,36.30
2018-11-05T12:32:51.534Z,35.60
2018-11-05T12:35:20.450Z,35.10
2018-11-05T12:37:50.621Z,33.00
2018-11-05T12:40:21.444Z,29.50
2018-11-05T12:42:51.262Z,30.70
2018-11-05T12:45:20.298Z,30.60
2018-11-05T12:47:49.253Z,30.50
2018-11-05T12:50:20.213Z,30.10
2018-11-05T12:52:49.993Z,27.60
2018-11-05T12:55:19.252Z,27.30
2018-11-05T12:57:48.689Z,28.80
2018-11-05T13:00:25.913Z,28.00
2018-11-05T13:03:00.326Z,28.10
2018-11-05T13:05:30.438Z,27.60
2018-11-05T13:07:59.402Z,27.10
2018-11-05T13:10:28.319Z,27.50
2018-11-05T13:12:57.255Z,27.20
2018-11-05T13:15:26.516Z,26.40
2018-11-05T13:17:55.327Z,25.20
2018-11-05T13:20:25.036Z,26.90
2018-11-05T13:22:54.221Z,26.50
2018-11-05T13:25:23.199Z,25.70
2018-11-05T13:27:52.463Z,25.50
2018-11-05T13:30:21.489Z,24.40
2018-11-05T13:32:50.399Z,25.00
2018-11-05T13:35:20.570Z,23.60
2018-11-05T13:37:49.893Z,24.90
2018-11-05T13:40:19.797Z,23.60
2018-11-05T13:42:49.234Z,23.80
2018-11-05T13:45:18.738Z,23.10
2018-11-05T13:47:48.201Z,24.40
2018-11-05T13:50:17.019Z,24.30
2018-11-05T13:52:45.742Z,24.30
2018-11-05T13:55:15.898Z,24.10
2018-11-05T13:57:46.003Z,25.00
2018-11-05T14:00:16.147Z,24.30
2018-11-05T14:02:45.111Z,24.00
2018-11-05T14:05:14.105Z,24.50
2018-11-05T14:07:43.007Z,23.90
2018-11-05T14:10:14.946Z,23.40
2018-11-05T14:12:44.939Z,23.60
2018-11-05T14:15:13.938Z,23.10
2018-11-05T14:17:43.601Z,22.80
2018-11-05T14:20:13.885Z,23.70
2018-11-05T14:22:43.172Z,24.10
2018-11-05T14:25:14.233Z,24.70
2018-11-05T14:27:44.547Z,25.60
2018-11-05T14:30:14.175Z,25.20
2018-11-05T14:32:45.439Z,25.90
2018-11-05T14:35:14.359Z,26.00
2018-11-05T14:37:43.331Z,26.90
2018-11-05T14:40:13.988Z,27.60
2018-11-05T14:42:42.944Z,28.40
2018-11-05T14:45:15.685Z,29.20
2018-11-05T14:47:45.524Z,28.90
2018-11-05T14:50:16.356Z,28.20
2018-11-05T14:52:45.299Z,29.00
2018-11-05T14:55:15.899Z,29.70
2018-11-05T14:57:45.916Z,30.00
2018-11-05T15:00:18.106Z,30.00
2018-11-05T15:02:47.796Z,30.00
2018-11-05T15:05:17.041Z,31.60
2018-11-05T15:07:46.731Z,31.10
2018-11-05T15:10:18.958Z,31.20
2018-11-05T15:12:48.066Z,31.60
2018-11-05T15:15:17.687Z,31.80
2018-11-05T15:17:47.083Z,33.30
2018-11-05T15:20:20.389Z,33.50
2018-11-05T15:22:49.503Z,32.70
2018-11-05T15:25:18.918Z,32.70
2018-11-05T15:27:47.833Z,33.60
2018-11-05T15:30:21.847Z,33.40
2018-11-05T15:32:50.825Z,34.70
2018-11-05T15:35:19.670Z,35.30
2018-11-05T15:37:48.587Z,36.40
2018-11-05T15:40:18.803Z,37.10
2018-11-05T15:42:47.690Z,38.00
2018-11-05T15:45:17.942Z,38.50
2018-11-05T15:47:46.930Z,39.10
2018-11-05T15:50:17.189Z,40.00
2018-11-05T15:52:46.493Z,41.20
2018-11-05T15:55:15.299Z,41.80
2018-11-05T15:57:44.253Z,44.10
2018-11-05T16:00:31.183Z,45.70
2018-11-05T16:03:01.283Z,44.50
2018-11-05T16:05:30.186Z,45.20
2018-11-05T16:07:59.102Z,46.00
2018-11-05T16:10:28.041Z,47.40
2018-11-05T16:12:56.950Z,48.30
2018-11-05T16:15:25.928Z,47.80
2018-11-05T16:17:54.839Z,48.60
2018-11-05T16:20:24.013Z,46.90
2018-11-05T16:22:53.443Z,47.20
2018-11-05T16:25:22.440Z,47.90
2018-11-05T16:27:51.474Z,48.90
2018-11-05T16:30:21.390Z,49.30
2018-11-05T16:32:51.068Z,49.50
2018-11-05T16:35:20.031Z,50.00
2018-11-05T16:37:48.861Z,51.20
2018-11-05T16:40:18.632Z,51.50
2018-11-05T16:42:48.762Z,51.90
2018-11-05T16:45:17.680Z,52.20
2018-11-05T16:47:46.978Z,52.70
2018-11-05T16:50:20.687Z,53.60
2018-11-05T16:52:49.628Z,54.50
2018-11-05T16:55:18.551Z,55.30
2018-11-05T16:57:47.547Z,55.90
2018-11-05T17:00:16.606Z,56.80
2018-11-05T17:02:46.279Z,56.80
2018-11-05T17:05:14.991Z,57.50
2018-11-05T17:07:44.015Z,57.70
2018-11-05T17:10:13.856Z,58.60
2018-11-05T17:12:43.390Z,59.80
2018-11-05T17:15:13.721Z,60.60
2018-11-05T17:17:43.148Z,61.10
2018-11-05T17:20:14.288Z,62.10
2018-11-05T17:22:43.750Z,65.60
2018-11-05T17:25:13.189Z,71.30
2018-11-05T17:27:42.665Z,76.20
2018-11-05T17:30:15.251Z,75.60
2018-11-05T17:32:44.678Z,75.80
2018-11-05T17:35:13.981Z,75.70
2018-11-05T17:37:43.387Z,75.10
2018-11-05T17:40:13.756Z,75.60
2018-11-05T17:42:42.955Z,74.90
2018-11-05T17:45:13.478Z,74.90
2018-11-05T17:47:42.794Z,75.80
2018-11-05T17:50:14.158Z,79.30
2018-11-05T17:52:43.696Z,81.80
2018-11-05T17:55:13.853Z,83.80
2018-11-05T17:57:44.183Z,87.00
2018-11-05T18:00:15.213Z,86.20
2018-11-05T18:02:44.527Z,90.10
2018-11-05T18:05:13.727Z,90.10
2018-11-05T18:07:43.027Z,90.80
2018-11-05T18:10:12.050Z,91.10
2018-11-05T18:12:41.052Z,91.10
2018-11-05T18:15:11.402Z,91.10
2018-11-05T18:17:41.104Z,91.70
2018-11-05T18:20:11.555Z,91.40
2018-11-05T18:22:40.454Z,91.10
2018-11-05T18:25:11.723Z,91.00
2018-11-05T18:27:40.926Z,91.60
2018-11-05T18:30:10.516Z,92.10
2018-11-05T18:32:39.459Z,91.10
2018-11-05T18:35:09.951Z,91.80
2018-11-05T18:37:39.010Z,92.00
2018-11-05T18:40:12.744Z,91.90
2018-11-05T18:42:42.167Z,91.90
2018-11-05T18:45:11.354Z,91.60
2018-11-05T18:47:40.403Z,92.20
2018-11-05T18:50:11.103Z,92.40
2018-11-05T18:52:40.191Z,92.80
2018-11-05T18:55:10.856Z,92.90
2018-11-05T18:57:40.190Z,93.00
2018-11-05T19:00:22.613Z,92.90
2018-11-05T19:02:52.518Z,92.80
2018-11-05T19:05:23.239Z,92.60
2018-11-05T19:07:52.395Z,92.80
2018-11-05T19:10:21.615Z,92.90
2018-11-05T19:12:51.380Z,93.10
2018-11-05T19:15:20.676Z,93.20
2018-11-05T19:17:50.162Z,93.00
2018-11-05T19:20:19.378Z,93.60
2018-11-05T19:22:48.524Z,93.70
2018-11-05T19:25:17.874Z,93.60
2018-11-05T19:27:46.842Z,94.10
2018-11-05T19:30:20.296Z,94.50
2018-11-05T19:32:49.259Z,94.50
2018-11-05T19:35:19.105Z,94.50
2018-11-05T19:37:48.187Z,94.30
2018-11-05T19:40:17.926Z,94.70
2018-11-05T19:42:47.557Z,94.40
2018-11-05T19:45:18.027Z,94.50
2018-11-05T19:47:50.643Z,94.50
2018-11-05T19:50:22.606Z,94.10
2018-11-05T19:52:52.861Z,94.40
2018-11-05T19:55:22.293Z,94.70
2018-11-05T19:57:52.117Z,94.40
2018-11-05T20:00:22.741Z,94.40
2018-11-05T20:02:51.954Z,95.00
2018-11-05T20:05:21.204Z,95.30
2018-11-05T20:07:53.155Z,95.20
2018-11-05T20:10:23.022Z,94.80
2018-11-05T20:12:51.984Z,95.40
2018-11-05T20:15:21.211Z,95.60
2018-11-05T20:17:51.302Z,96.40
2018-11-05T20:20:21.673Z,96.90
2018-11-05T20:22:50.772Z,96.80
2018-11-05T20:25:19.667Z,96.50
2018-11-05T20:27:48.653Z,96.40
2018-11-05T20:30:20.242Z,96.70
2018-11-05T20:32:50.268Z,96.40
2018-11-05T20:35:18.978Z,96.10
2018-11-05T20:37:47.874Z,96.30
2018-11-05T20:40:18.027Z,96.30
2018-11-05T20:42:47.993Z,96.50
2018-11-05T20:45:17.730Z,96.40
2018-11-05T20:47:46.659Z,96.60
2018-11-05T20:50:16.294Z,96.60
2018-11-05T20:52:45.255Z,96.70
2018-11-05T20:55:15.598Z,97.10
2018-11-05T20:57:44.691Z,97.80
2018-11-05T21:00:15.975Z,98.30
2018-11-05T21:02:45.960Z,98.30
2018-11-05T21:05:14.942Z,98.60
2018-11-05T21:07:44.313Z,98.60
2018-11-05T21:10:14.239Z,98.50
2018-11-05T21:12:43.845Z,98.30
2018-11-05T21:15:15.026Z,98.30
2018-11-05T21:17:44.798Z,98.30
2018-11-05T21:20:14.181Z,98.50
2018-11-05T21:22:43.477Z,98.40
2018-11-05T21:25:12.177Z,98.30
2018-11-05T21:27:42.044Z,98.30
2018-11-05T21:30:13.362Z,97.70
2018-11-05T21:32:42.318Z,97.90
2018-11-05T21:35:13.208Z,98.10
2018-11-05T21:37:42.828Z,98.00
2018-11-05T21:40:12.862Z,97.80
2018-11-05T21:42:41.741Z,97.60
2018-11-05T21:45:11.907Z,97.40
2018-11-05T21:47:41.304Z,97.70
2018-11-05T21:50:11.900Z,98.60
2018-11-05T21:52:41.470Z,98.90
2018-11-05T21:55:10.495Z,98.60
2018-11-05T21:57:41.120Z,98.50
2018-11-05T22:00:15.690Z,98.50
2018-11-05T22:02:49.857Z,98.10
2018-11-05T22:05:18.951Z,98.10
2018-11-05T22:07:48.419Z,98.30
2018-11-05T22:10:17.471Z,98.10
2018-11-05T22:12:46.867Z,98.00
2018-11-05T22:15:15.841Z,98.00
2018-11-05T22:17:44.789Z,98.00
2018-11-05T22:20:14.166Z,98.50
2018-11-05T22:22:43.260Z,98.10
2018-11-05T22:25:12.415Z,98.40
2018-11-05T22:27:41.421Z,98.00
2018-11-05T22:30:11.322Z,98.60
2018-11-05T22:32:40.215Z,98.60
2018-11-05T22:35:09.185Z,99.10
2018-11-05T22:37:38.170Z,99.60
2018-11-05T22:40:09.849Z,99.90
2018-11-05T22:42:38.796Z,99.70
2018-11-05T22:45:08.365Z,99.50
2018-11-05T22:47:37.648Z,99.30
2018-11-05T22:50:06.996Z,99.60
2018-11-05T22:52:35.894Z,99.60
2018-11-05T22:55:05.618Z,99.50
2018-11-05T22:57:34.647Z,98.90
2018-11-05T23:00:03.958Z,99.30
2018-11-05T23:02:33.013Z,99.30
2018-11-05T23:05:01.915Z,99.30
2018-11-05T23:07:30.830Z,99.30
2018-11-05T23:09:59.737Z,99.30
2018-11-05T23:12:28.626Z,99.00
2018-11-05T23:14:57.759Z,99.40
2018-11-05T23:17:26.725Z,99.40
2018-11-05T23:19:55.639Z,99.50
2018-11-05T23:22:24.613Z,99.60
2018-11-05T23:24:53.591Z,99.50
2018-11-05T23:27:22.594Z,99.80
2018-11-05T23:29:51.580Z,99.90
2018-11-05T23:32:20.578Z,99.90
2018-11-05T23:34:49.574Z,99.90
2018-11-05T23:37:18.479Z,99.90
2018-11-05T23:39:47.367Z,99.90
2018-11-05T23:42:16.346Z,99.90
2018-11-05T23:44:45.238Z,99.90
2018-11-05T23:47:14.127Z,99.90
2018-11-05T23:49:43.117Z,99.90
2018-11-05T23:52:12.171Z,99.90
2018-11-05T23:54:41.009Z,99.90
2018-11-05T23:57:09.915Z,99.80
2018-11-05T23:59:38.906Z,99.80
